Time;durP1;ratioP1;P1;durP2;ratioP2;P2;SDS_P1;SDS_P2;PMS_P1;PMS_P2;Temp;Humidity;BMP_temperature;BMP_pressure;BME280_temperature;BME280_humidity;BME280_pressure;Samples;Min_cycle;Max_cycle;Signal;HPM_P1;HPM_P2
2023/11/10 00:01:29;;;;;;;3.90;1.40;;;7.60;99.90;;;;;;482370;246;28439;-73
2023/11/10 00:03:30;;;;;;;1.30;1.20;;;7.60;99.90;;;;;;482353;246;27883;-74
2023/11/10 00:05:32;;;;;;;1.40;1.13;;;7.60;99.90;;;;;;482381;246;28000;-73
2023/11/10 00:07:34;;;;;;;2.43;1.13;;;7.60;99.90;;;;;;482372;246;27930;-74
2023/11/10 00:09:34;;;;;;;2.63;1.10;;;7.60;99.90;;;;;;482316;246;27828;-73
2023/11/10 00:11:35;;;;;;;1.03;1.00;;;7.50;99.90;;;;;;482361;246;27927;-74
2023/11/10 00:13:36;;;;;;;1.70;1.20;;;7.50;99.90;;;;;;482343;246;28833;-74
2023/11/10 00:15:38;;;;;;;5.03;1.20;;;7.50;99.90;;;;;;482363;246;28104;-73
2023/11/10 00:17:39;;;;;;;2.30;1.40;;;7.40;99.90;;;;;;482350;246;27934;-73
2023/11/10 00:19:40;;;;;;;1.57;1.20;;;7.50;99.90;;;;;;482345;246;28242;-74
2023/11/10 00:21:41;;;;;;;7.10;1.60;;;7.50;99.90;;;;;;482353;246;28017;-73
2023/11/10 00:23:43;;;;;;;2.10;1.30;;;7.40;99.90;;;;;;482366;246;27571;-74
2023/11/10 00:25:44;;;;;;;2.37;1.23;;;7.40;99.90;;;;;;482357;246;27656;-73
2023/11/10 00:27:45;;;;;;;1.40;1.30;;;7.40;99.90;;;;;;482353;246;28048;-74
2023/11/10 00:29:47;;;;;;;2.83;1.30;;;7.50;99.90;;;;;;482369;246;28401;-76
2023/11/10 00:31:48;;;;;;;2.40;1.57;;;7.50;99.90;;;;;;482334;246;28443;-73
2023/11/10 00:33:53;;;;;;;2.43;1.30;;;7.50;99.90;;;;;;482354;246;28291;-74
2023/11/10 00:35:50;;;;;;;2.20;1.53;;;7.50;99.90;;;;;;481964;246;28404;-73
2023/11/10 00:37:51;;;;;;;2.53;1.10;;;7.50;99.90;;;;;;482366;246;28585;-73
2023/11/10 00:39:57;;;;;;;3.67;1.33;;;7.50;99.90;;;;;;482376;246;28506;-74
2023/11/10 00:41:54;;;;;;;3.67;1.37;;;7.60;99.90;;;;;;481878;246;28595;-74
2023/11/10 00:43:55;;;;;;;3.33;1.30;;;7.50;99.90;;;;;;482485;246;27864;-74
2023/11/10 00:45:56;;;;;;;1.30;1.20;;;7.50;99.90;;;;;;482439;246;27928;-73
2023/11/10 00:47:58;;;;;;;3.70;1.37;;;7.50;99.90;;;;;;482390;246;27914;-73
2023/11/10 00:49:59;;;;;;;1.87;1.20;;;7.50;99.90;;;;;;482395;246;28018;-74
2023/11/10 00:52:00;;;;;;;3.07;1.23;;;7.50;99.90;;;;;;482367;246;27530;-73
2023/11/10 00:54:01;;;;;;;1.60;1.50;;;7.50;99.90;;;;;;482390;246;28008;-73
2023/11/10 00:56:03;;;;;;;5.37;1.20;;;7.50;99.90;;;;;;482454;246;28155;-74
2023/11/10 00:58:04;;;;;;;1.17;1.07;;;7.60;99.90;;;;;;482384;246;28248;-73
2023/11/10 01:00:06;;;;;;;3.13;1.53;;;7.50;99.90;;;;;;482386;246;27619;-74
2023/11/10 01:02:06;;;;;;;4.10;1.17;;;7.50;99.90;;;;;;482339;246;28445;-73
2023/11/10 01:04:08;;;;;;;3.03;1.40;;;7.50;99.90;;;;;;482378;246;28091;-73
2023/11/10 01:06:10;;;;;;;2.20;1.20;;;7.60;99.90;;;;;;482434;246;27925;-75
2023/11/10 01:08:10;;;;;;;2.80;1.27;;;7.60;99.90;;;;;;482448;246;28313;-73
2023/11/10 01:10:12;;;;;;;2.20;1.00;;;7.60;99.90;;;;;;482450;246;28309;-73
2023/11/10 01:12:13;;;;;;;2.13;1.30;;;7.60;99.90;;;;;;482285;246;28198;-73
2023/11/10 01:14:14;;;;;;;1.77;1.33;;;7.60;99.90;;;;;;482347;246;28544;-74
2023/11/10 01:16:16;;;;;;;3.83;1.20;;;7.60;99.90;;;;;;482472;246;28282;-74
2023/11/10 01:18:16;;;;;;;1.83;0.93;;;7.50;99.90;;;;;;482350;246;28293;-74
2023/11/10 01:20:18;;;;;;;2.83;1.10;;;7.50;99.90;;;;;;482442;246;27924;-73
2023/11/10 01:22:19;;;;;;;2.10;1.10;;;7.50;99.90;;;;;;482335;246;28138;-73
2023/11/10 01:24:21;;;;;;;4.07;1.27;;;7.50;99.90;;;;;;482363;246;27954;-74
2023/11/10 01:26:22;;;;;;;3.67;1.30;;;7.50;99.90;;;;;;482326;246;27914;-74
2023/11/10 01:28:23;;;;;;;1.33;1.10;;;7.50;99.90;;;;;;482358;246;27978;-73
2023/11/10 01:30:24;;;;;;;27.93;1.83;;;7.50;99.90;;;;;;482448;246;28052;-74
2023/11/10 01:32:25;;;;;;;2.20;1.17;;;7.50;99.90;;;;;;482464;246;28274;-74
2023/11/10 01:34:26;;;;;;;2.10;1.30;;;7.50;99.90;;;;;;482441;246;27961;-74
2023/11/10 01:36:28;;;;;;;4.30;1.40;;;7.40;99.90;;;;;;482378;246;27781;-73
2023/11/10 01:38:29;;;;;;;1.70;1.00;;;7.50;99.90;;;;;;482300;246;27708;-73
2023/11/10 01:40:31;;;;;;;1.10;1.00;;;7.50;99.90;;;;;;482424;246;27892;-73
2023/11/10 01:42:32;;;;;;;1.40;1.00;;;7.40;99.90;;;;;;482383;246;27971;-74
2023/11/10 01:44:33;;;;;;;1.30;1.20;;;7.40;99.90;;;;;;482366;246;27828;-73
2023/11/10 01:46:34;;;;;;;1.63;1.20;;;7.30;99.90;;;;;;482360;246;27673;-74
2023/11/10 01:48:36;;;;;;;2.30;1.70;;;7.30;99.90;;;;;;482345;246;28932;-73
2023/11/10 01:50:36;;;;;;;1.90;1.40;;;7.30;99.90;;;;;;482396;246;28391;-75
2023/11/10 01:52:38;;;;;;;1.83;1.10;;;7.30;99.90;;;;;;482356;246;28408;-74
2023/11/10 01:54:39;;;;;;;1.67;1.37;;;7.20;99.90;;;;;;482317;246;28586;-73
2023/11/10 01:56:40;;;;;;;1.30;1.10;;;7.30;99.90;;;;;;482349;246;28404;-74
2023/11/10 01:58:41;;;;;;;2.70;1.40;;;7.20;99.90;;;;;;482402;246;29564;-73
2023/11/10 02:00:43;;;;;;;3.03;1.30;;;7.20;99.90;;;;;;482458;246;27884;-74
2023/11/10 02:02:44;;;;;;;5.25;1.58;;;7.20;99.90;;;;;;482353;246;28003;-74
2023/11/10 02:04:45;;;;;;;1.43;1.33;;;7.20;99.90;;;;;;482334;246;27423;-73
2023/11/10 02:06:47;;;;;;;1.90;1.65;;;7.20;99.90;;;;;;482328;246;28686;-73
2023/11/10 02:08:48;;;;;;;3.60;1.40;;;7.20;99.90;;;;;;482427;246;27873;-74
2023/11/10 02:10:49;;;;;;;1.10;1.03;;;7.20;99.90;;;;;;482442;246;28114;-73
2023/11/10 02:12:50;;;;;;;3.83;1.27;;;7.20;99.90;;;;;;482428;246;28368;-73
2023/11/10 02:14:51;;;;;;;2.10;1.30;;;7.20;99.90;;;;;;482406;246;27978;-73
2023/11/10 02:16:53;;;;;;;2.80;1.43;;;7.30;99.90;;;;;;482452;246;28037;-73
2023/11/10 02:18:54;;;;;;;1.33;1.10;;;7.30;99.90;;;;;;482428;246;28578;-73
2023/11/10 02:20:55;;;;;;;1.70;1.20;;;7.30;99.90;;;;;;482415;246;28974;-74
2023/11/10 02:22:56;;;;;;;1.87;1.20;;;7.30;99.90;;;;;;482337;246;29262;-73
2023/11/10 02:24:58;;;;;;;1.93;1.30;;;7.20;99.90;;;;;;482364;246;29214;-73
2023/11/10 02:26:59;;;;;;;1.20;1.10;;;7.20;99.90;;;;;;482379;246;27599;-73
2023/11/10 02:29:00;;;;;;;1.40;1.23;;;7.30;99.90;;;;;;482450;246;27960;-74
2023/11/10 02:31:01;;;;;;;3.00;1.55;;;7.20;99.90;;;;;;482379;246;27863;-73
2023/11/10 02:33:03;;;;;;;3.60;1.23;;;7.30;99.90;;;;;;482365;245;27458;-73
2023/11/10 02:35:04;;;;;;;6.43;1.20;;;7.30;99.90;;;;;;482371;246;27817;-73
2023/11/10 02:37:07;;;;;;;2.23;1.20;;;7.20;99.90;;;;;;482354;246;28176;-73
2023/11/10 02:39:06;;;;;;;3.50;1.23;;;7.20;99.90;;;;;;482262;246;28851;-74
2023/11/10 02:41:08;;;;;;;1.67;1.33;;;7.20;99.90;;;;;;482453;246;27412;-73
2023/11/10 02:43:09;;;;;;;2.70;1.27;;;7.20;99.90;;;;;;482420;246;28888;-73
2023/11/10 02:45:10;;;;;;;2.40;1.40;;;7.20;99.90;;;;;;482456;246;28176;-74
2023/11/10 02:47:11;;;;;;;3.80;1.37;;;7.30;99.90;;;;;;482368;246;28920;-73
2023/11/10 02:49:13;;;;;;;1.83;1.10;;;7.20;99.90;;;;;;482364;246;29331;-74
2023/11/10 02:51:14;;;;;;;1.30;1.20;;;7.30;99.90;;;;;;482373;246;27475;-73
2023/11/10 02:53:15;;;;;;;1.77;1.00;;;7.30;99.90;;;;;;482414;246;27676;-73
2023/11/10 02:55:16;;;;;;;1.87;1.03;;;7.30;99.90;;;;;;482381;246;28020;-74
2023/11/10 02:57:18;;;;;;;2.60;1.27;;;7.30;99.90;;;;;;482365;246;27884;-73
2023/11/10 02:59:19;;;;;;;2.10;1.50;;;7.20;99.90;;;;;;482455;246;28517;-74
2023/11/10 03:01:21;;;;;;;1.30;1.20;;;7.20;99.90;;;;;;482401;246;28851;-73
2023/11/10 03:03:21;;;;;;;1.52;1.20;;;7.30;99.90;;;;;;482442;246;28031;-73
2023/11/10 03:05:23;;;;;;;3.17;1.40;;;7.30;99.90;;;;;;482466;246;27561;-74
2023/11/10 03:07:24;;;;;;;2.50;1.40;;;7.30;99.90;;;;;;482430;246;27960;-74
2023/11/10 03:09:25;;;;;;;1.80;1.27;;;7.30;99.90;;;;;;482321;246;28681;-73
2023/11/10 03:11:26;;;;;;;2.53;1.30;;;7.30;99.90;;;;;;482379;246;27672;-75
2023/11/10 03:13:28;;;;;;;3.93;2.20;;;7.30;99.90;;;;;;482460;246;28409;-74
2023/11/10 03:15:29;;;;;;;6.03;1.40;;;7.30;99.90;;;;;;482329;246;29250;-74
2023/11/10 03:17:30;;;;;;;3.55;1.60;;;7.30;99.90;;;;;;482347;246;29046;-74
2023/11/10 03:19:32;;;;;;;3.07;1.23;;;7.30;99.90;;;;;;482374;246;27435;-74
2023/11/10 03:21:33;;;;;;;3.67;1.50;;;7.30;99.90;;;;;;482430;246;28797;-75
2023/11/10 03:23:34;;;;;;;2.03;1.20;;;7.30;99.90;;;;;;482441;246;27403;-73
2023/11/10 03:25:35;;;;;;;2.80;1.60;;;7.30;99.90;;;;;;482442;246;27448;-74
2023/11/10 03:27:37;;;;;;;3.60;1.40;;;7.30;99.90;;;;;;482359;246;27590;-73
2023/11/10 03:29:38;;;;;;;4.07;1.20;;;7.30;99.90;;;;;;482379;246;27885;-74
2023/11/10 03:31:39;;;;;;;2.77;1.60;;;7.30;99.90;;;;;;482362;246;28796;-74
2023/11/10 03:33:40;;;;;;;4.10;1.60;;;7.30;99.90;;;;;;482354;246;27851;-73
2023/11/10 03:35:42;;;;;;;5.00;1.70;;;7.30;99.90;;;;;;482381;246;27996;-73
2023/11/10 03:37:43;;;;;;;3.00;1.50;;;7.30;99.90;;;;;;482360;246;29159;-73
2023/11/10 03:39:44;;;;;;;1.20;1.10;;;7.30;99.90;;;;;;482373;246;28611;-73
2023/11/10 03:41:45;;;;;;;2.40;1.27;;;7.20;99.90;;;;;;482350;246;29486;-74
2023/11/10 03:43:47;;;;;;;4.60;1.50;;;7.20;99.90;;;;;;482358;246;28364;-73
2023/11/10 03:45:48;;;;;;;8.23;2.17;;;7.20;99.90;;;;;;482347;246;28603;-73
2023/11/10 03:47:49;;;;;;;4.57;1.50;;;7.20;99.90;;;;;;482355;246;28850;-74
2023/11/10 03:49:50;;;;;;;5.90;1.77;;;7.20;99.90;;;;;;482430;246;27530;-73
2023/11/10 03:51:52;;;;;;;2.47;1.70;;;7.20;99.90;;;;;;482419;246;28011;-74
2023/11/10 03:53:53;;;;;;;4.43;1.70;;;7.20;99.90;;;;;;482325;246;27987;-73
2023/11/10 03:55:54;;;;;;;5.05;2.08;;;7.10;99.90;;;;;;482339;246;27443;-73
2023/11/10 03:57:55;;;;;;;8.73;1.60;;;7.10;99.90;;;;;;482378;246;27439;-76
2023/11/10 03:59:57;;;;;;;5.37;1.80;;;7.20;99.90;;;;;;482371;246;29038;-73
2023/11/10 04:01:58;;;;;;;2.87;1.60;;;7.10;99.90;;;;;;482366;246;28412;-73
2023/11/10 04:03:59;;;;;;;2.58;1.50;;;7.20;99.90;;;;;;482376;246;29302;-73
2023/11/10 04:06:00;;;;;;;6.35;1.73;;;7.10;99.90;;;;;;482364;246;27439;-73
2023/11/10 04:08:02;;;;;;;2.15;1.40;;;7.10;99.90;;;;;;482365;246;27443;-73
2023/11/10 04:10:03;;;;;;;5.80;2.10;;;7.20;99.90;;;;;;482372;246;27479;-73
2023/11/10 04:12:04;;;;;;;9.13;1.48;;;7.20;99.90;;;;;;482353;246;28802;-73
2023/11/10 04:14:07;;;;;;;5.37;1.63;;;7.10;99.90;;;;;;482346;246;27423;-74
2023/11/10 04:16:07;;;;;;;4.70;1.50;;;7.10;99.90;;;;;;482376;246;28804;-73
2023/11/10 04:18:08;;;;;;;3.35;1.30;;;7.10;99.90;;;;;;482455;246;27927;-74
2023/11/10 04:20:09;;;;;;;3.03;1.30;;;7.10;99.90;;;;;;482431;246;27966;-72
2023/11/10 04:22:10;;;;;;;2.30;1.33;;;7.10;99.90;;;;;;482419;246;27937;-73
2023/11/10 04:24:12;;;;;;;5.47;1.63;;;7.10;99.90;;;;;;482445;246;28349;-75
2023/11/10 04:26:14;;;;;;;1.20;1.10;;;7.10;99.90;;;;;;482344;246;28858;-73
2023/11/10 04:28:14;;;;;;;6.03;1.60;;;7.10;99.90;;;;;;482381;246;28778;-73
2023/11/10 04:30:15;;;;;;;1.92;1.35;;;7.10;99.90;;;;;;482377;246;28781;-73
2023/11/10 04:32:17;;;;;;;3.53;1.50;;;7.00;99.90;;;;;;482423;246;27510;-73
2023/11/10 04:34:18;;;;;;;1.85;1.10;;;7.00;99.90;;;;;;482462;246;28050;-74
2023/11/10 04:36:19;;;;;;;1.77;1.57;;;7.10;99.90;;;;;;482411;246;27521;-74
2023/11/10 04:38:20;;;;;;;1.98;1.30;;;7.10;99.90;;;;;;482331;246;27932;-73
2023/11/10 04:40:22;;;;;;;6.27;1.60;;;7.10;99.90;;;;;;482356;246;28727;-73
2023/11/10 04:42:23;;;;;;;5.50;1.43;;;7.10;99.90;;;;;;482366;246;28795;-73
2023/11/10 04:44:24;;;;;;;1.77;1.20;;;7.00;99.90;;;;;;482364;246;28471;-74
2023/11/10 04:46:25;;;;;;;2.37;1.20;;;7.10;99.90;;;;;;482383;246;28491;-73
2023/11/10 04:48:28;;;;;;;1.70;1.17;;;7.00;99.90;;;;;;482334;246;28328;-74
2023/11/10 04:50:28;;;;;;;4.37;1.47;;;7.00;99.90;;;;;;482271;246;28878;-75
2023/11/10 04:52:29;;;;;;;5.85;1.33;;;6.90;99.90;;;;;;482372;246;28860;-74
2023/11/10 04:54:30;;;;;;;4.45;1.50;;;6.90;99.90;;;;;;482486;246;27524;-74
2023/11/10 04:56:33;;;;;;;4.60;1.62;;;6.90;99.90;;;;;;482459;246;27399;-73
2023/11/10 04:58:34;;;;;;;3.10;1.23;;;6.90;99.90;;;;;;482295;246;27431;-73
2023/11/10 05:00:34;;;;;;;2.35;1.20;;;6.80;99.90;;;;;;482376;246;28419;-74
2023/11/10 05:02:35;;;;;;;2.95;1.50;;;6.80;99.90;;;;;;482478;246;27896;-74
2023/11/10 05:04:39;;;;;;;2.97;1.20;;;6.80;99.90;;;;;;482464;246;27440;-74
2023/11/10 05:06:38;;;;;;;1.80;1.02;;;6.80;99.90;;;;;;482182;246;27451;-73
2023/11/10 05:08:39;;;;;;;3.30;1.30;;;6.80;99.90;;;;;;482391;246;27488;-73
2023/11/10 05:10:40;;;;;;;2.93;1.80;;;6.80;99.90;;;;;;482368;246;27535;-73
2023/11/10 05:12:42;;;;;;;6.85;1.30;;;6.80;99.90;;;;;;482345;246;28802;-73
2023/11/10 05:14:43;;;;;;;2.70;1.50;;;6.70;99.90;;;;;;482309;246;27440;-73
2023/11/10 05:16:44;;;;;;;2.55;1.27;;;6.80;99.90;;;;;;482336;246;28080;-75
2023/11/10 05:18:45;;;;;;;0.90;0.90;;;6.80;99.90;;;;;;482383;246;27415;-74
2023/11/10 05:20:47;;;;;;;1.10;1.10;;;6.70;99.90;;;;;;482343;246;27559;-73
2023/11/10 05:22:48;;;;;;;2.67;1.17;;;6.70;99.90;;;;;;482291;246;27403;-74
2023/11/10 05:24:49;;;;;;;1.17;1.17;;;6.70;99.90;;;;;;482380;246;27427;-74
2023/11/10 05:26:50;;;;;;;3.27;1.20;;;6.70;99.90;;;;;;486181;243;27379;-74
2023/11/10 05:28:52;;;;;;;2.35;1.30;;;6.70;99.90;;;;;;488454;243;28715;-73
2023/11/10 05:30:53;;;;;;;3.28;1.30;;;6.70;99.90;;;;;;488396;243;27998;-73
2023/11/10 05:32:54;;;;;;;2.10;1.45;;;6.70;99.90;;;;;;488425;243;28688;-73
2023/11/10 05:34:56;;;;;;;1.87;1.43;;;6.70;99.90;;;;;;488431;243;27458;-73
2023/11/10 05:36:57;;;;;;;4.60;1.70;;;6.80;99.90;;;;;;488521;243;27869;-75
2023/11/10 05:38:58;;;;;;;2.97;2.07;;;6.70;99.90;;;;;;488481;243;27364;-73
2023/11/10 05:40:59;;;;;;;1.48;1.35;;;6.70;99.90;;;;;;488536;243;28739;-73
2023/11/10 05:43:01;;;;;;;4.35;1.77;;;6.70;99.90;;;;;;488590;243;27423;-73
2023/11/10 05:45:02;;;;;;;3.85;1.87;;;6.70;99.90;;;;;;488612;243;27926;-74
2023/11/10 05:47:03;;;;;;;1.97;1.50;;;6.70;99.90;;;;;;488557;243;27955;-73
2023/11/10 05:49:06;;;;;;;4.57;2.15;;;6.70;99.90;;;;;;488461;243;28699;-73
2023/11/10 05:51:06;;;;;;;2.17;1.90;;;6.70;99.90;;;;;;488414;243;27423;-73
2023/11/10 05:53:07;;;;;;;9.25;1.80;;;6.70;99.90;;;;;;488570;243;28747;-74
2023/11/10 05:55:08;;;;;;;2.58;1.73;;;6.70;99.90;;;;;;488514;243;27442;-73
2023/11/10 05:57:10;;;;;;;11.03;1.60;;;6.70;99.90;;;;;;488499;243;27435;-73
2023/11/10 05:59:11;;;;;;;1.93;1.70;;;6.70;99.90;;;;;;488517;243;28711;-73
2023/11/10 06:01:12;;;;;;;2.92;2.20;;;6.60;99.90;;;;;;488571;243;27958;-74
2023/11/10 06:03:14;;;;;;;2.33;1.45;;;6.60;99.90;;;;;;488376;243;27997;-72
2023/11/10 06:05:15;;;;;;;3.80;2.00;;;6.60;99.90;;;;;;488513;243;27397;-73
2023/11/10 06:07:16;;;;;;;1.83;1.73;;;6.70;99.90;;;;;;488473;243;27385;-73
2023/11/10 06:09:17;;;;;;;2.55;1.50;;;6.70;99.90;;;;;;488516;243;28751;-74
2023/11/10 06:11:20;;;;;;;5.28;1.80;;;6.70;99.90;;;;;;488527;243;27367;-74
2023/11/10 06:13:21;;;;;;;1.67;1.50;;;6.70;99.90;;;;;;488359;243;27412;-73
2023/11/10 06:15:21;;;;;;;4.83;1.70;;;6.70;99.90;;;;;;488410;243;27371;-73
2023/11/10 06:17:22;;;;;;;2.15;1.58;;;6.70;99.90;;;;;;488495;243;28899;-73
2023/11/10 06:19:23;;;;;;;2.00;1.90;;;6.70;99.90;;;;;;488571;243;27914;-74
2023/11/10 06:21:24;;;;;;;1.80;1.70;;;6.70;99.90;;;;;;488567;243;27376;-74
2023/11/10 06:23:26;;;;;;;3.13;1.87;;;6.70;99.90;;;;;;488595;243;28794;-73
2023/11/10 06:25:27;;;;;;;2.35;1.50;;;6.70;99.90;;;;;;488470;243;28753;-73
2023/11/10 06:27:28;;;;;;;2.57;1.87;;;6.60;99.90;;;;;;488514;243;27392;-73
2023/11/10 06:29:29;;;;;;;4.47;1.73;;;6.60;99.90;;;;;;488501;243;28764;-73
2023/11/10 06:31:31;;;;;;;1.33;1.20;;;6.60;99.90;;;;;;488512;243;27367;-73
2023/11/10 06:33:32;;;;;;;2.00;1.60;;;6.60;99.90;;;;;;488485;243;28737;-73
2023/11/10 06:35:33;;;;;;;3.75;1.77;;;6.60;99.90;;;;;;488588;243;28054;-74
2023/11/10 06:37:35;;;;;;;4.72;1.50;;;6.60;99.90;;;;;;488572;243;27954;-73
2023/11/10 06:39:36;;;;;;;2.30;2.10;;;6.60;99.90;;;;;;488487;243;27491;-73
2023/11/10 06:41:37;;;;;;;3.23;1.60;;;6.60;99.90;;;;;;488495;243;27407;-73
2023/11/10 06:43:39;;;;;;;3.53;1.80;;;6.60;99.90;;;;;;488554;243;28570;-73
2023/11/10 06:45:40;;;;;;;4.12;1.30;;;6.60;99.90;;;;;;488579;243;27375;-75
2023/11/10 06:47:41;;;;;;;3.42;1.58;;;6.70;99.90;;;;;;488574;243;27383;-73
2023/11/10 06:49:42;;;;;;;2.33;1.47;;;6.70;99.90;;;;;;488571;243;27915;-73
2023/11/10 06:51:43;;;;;;;2.33;1.50;;;6.70;99.90;;;;;;488514;243;28974;-73
2023/11/10 06:53:45;;;;;;;4.55;1.60;;;6.60;99.90;;;;;;488588;243;28894;-74
2023/11/10 06:55:46;;;;;;;3.35;1.40;;;6.70;99.90;;;;;;488598;243;27410;-74
2023/11/10 06:57:47;;;;;;;5.00;1.58;;;6.60;99.90;;;;;;488447;243;27487;-73
2023/11/10 06:59:48;;;;;;;3.12;1.90;;;6.70;99.90;;;;;;487824;243;27427;-73
2023/11/10 07:01:51;;;;;;;2.73;1.90;;;6.70;99.90;;;;;;487966;243;27423;-75
2023/11/10 07:03:51;;;;;;;3.20;1.70;;;6.70;99.90;;;;;;487984;243;27870;-73
2023/11/10 07:05:52;;;;;;;2.95;1.60;;;6.70;99.90;;;;;;488180;243;28000;-74
2023/11/10 07:07:54;;;;;;;5.53;1.77;;;6.70;99.90;;;;;;488477;243;27920;-73
2023/11/10 07:09:55;;;;;;;2.55;1.70;;;6.70;99.90;;;;;;488508;243;28004;-73
2023/11/10 07:11:56;;;;;;;8.75;1.83;;;6.70;99.90;;;;;;481750;241;27439;-74
2023/11/10 07:13:57;;;;;;;1.37;1.27;;;6.70;99.90;;;;;;480936;245;27550;-74
2023/11/10 07:15:58;;;;;;;4.40;1.58;;;6.70;99.90;;;;;;480972;245;27552;-74
2023/11/10 07:18:03;;;;;;;2.35;1.70;;;6.70;99.90;;;;;;480886;245;27509;-73
2023/11/10 07:20:01;;;;;;;7.00;1.70;;;6.70;99.90;;;;;;480867;247;27901;-74
2023/11/10 07:22:03;;;;;;;5.97;1.60;;;6.70;99.90;;;;;;481154;245;28907;-74
2023/11/10 07:24:04;;;;;;;5.03;1.80;;;6.70;99.90;;;;;;481023;245;27955;-73
2023/11/10 07:26:05;;;;;;;3.30;1.60;;;6.70;99.90;;;;;;481143;246;27437;-74
2023/11/10 07:28:06;;;;;;;4.40;1.90;;;6.70;99.90;;;;;;481140;246;28601;-73
2023/11/10 07:30:08;;;;;;;7.95;2.08;;;6.70;99.90;;;;;;481122;246;28865;-74
2023/11/10 07:32:08;;;;;;;3.40;1.95;;;6.80;99.90;;;;;;480977;244;27447;-74
2023/11/10 07:34:10;;;;;;;3.63;1.63;;;6.80;99.90;;;;;;481060;245;27476;-73
2023/11/10 07:36:11;;;;;;;1.27;1.27;;;6.80;99.90;;;;;;480980;245;28629;-74
2023/11/10 07:38:12;;;;;;;4.00;1.43;;;6.80;99.90;;;;;;480558;247;29364;-75
2023/11/10 07:40:14;;;;;;;2.40;1.70;;;6.80;99.90;;;;;;480576;243;29259;-73
2023/11/10 07:42:15;;;;;;;2.10;1.50;;;6.80;99.90;;;;;;478346;247;28162;-75
2023/11/10 07:44:17;;;;;;;3.90;1.35;;;6.80;99.90;;;;;;484948;245;27509;-73
2023/11/10 07:46:17;;;;;;;1.77;1.60;;;6.80;99.90;;;;;;483602;245;27446;-73
2023/11/10 07:48:18;;;;;;;3.40;1.67;;;6.80;99.90;;;;;;477880;248;27596;-73
2023/11/10 07:50:20;;;;;;;3.83;1.33;;;6.80;99.90;;;;;;477827;249;28988;-73
2023/11/10 07:52:22;;;;;;;1.93;1.70;;;6.90;99.90;;;;;;478207;245;28866;-74
2023/11/10 07:54:23;;;;;;;5.03;1.50;;;6.90;99.90;;;;;;478284;248;28108;-73
2023/11/10 07:56:23;;;;;;;7.87;2.50;;;7.00;99.90;;;;;;478333;245;28578;-74
2023/11/10 07:58:26;;;;;;;5.05;1.90;;;7.00;99.90;;;;;;478315;248;28033;-74
2023/11/10 08:00:26;;;;;;;4.68;2.20;;;7.10;99.90;;;;;;478252;248;27960;-74
2023/11/10 08:02:27;;;;;;;2.05;1.85;;;7.10;99.90;;;;;;478393;245;27562;-74
2023/11/10 08:04:29;;;;;;;5.80;2.03;;;7.10;99.90;;;;;;478323;248;27592;-75
2023/11/10 08:06:30;;;;;;;2.63;1.80;;;7.10;99.90;;;;;;479674;245;27896;-73
2023/11/10 08:08:31;;;;;;;4.83;2.00;;;7.20;99.90;;;;;;485133;245;28004;-73
2023/11/10 08:10:33;;;;;;;3.50;1.77;;;7.30;99.90;;;;;;486545;244;28889;-73
2023/11/10 08:12:33;;;;;;;3.00;1.70;;;7.40;99.90;;;;;;485079;244;28027;-73
2023/11/10 08:14:35;;;;;;;2.83;1.57;;;7.60;99.90;;;;;;485205;245;28019;-73
2023/11/10 08:16:36;;;;;;;7.70;1.80;;;7.70;99.90;;;;;;486505;244;27808;-73
2023/11/10 08:18:38;;;;;;;5.27;1.60;;;7.60;99.90;;;;;;485181;245;27908;-73
2023/11/10 08:20:39;;;;;;;3.40;1.50;;;7.60;99.90;;;;;;486445;244;27955;-73
2023/11/10 08:22:40;;;;;;;5.10;1.80;;;7.60;99.90;;;;;;484995;244;27998;-73
2023/11/10 08:24:42;;;;;;;4.97;1.70;;;7.40;99.90;;;;;;485081;245;28508;-74
2023/11/10 08:26:42;;;;;;;2.93;1.50;;;7.40;99.90;;;;;;486368;244;28281;-73
2023/11/10 08:28:43;;;;;;;3.30;1.93;;;7.40;99.90;;;;;;485128;245;28227;-73
2023/11/10 08:30:47;;;;;;;3.33;1.67;;;7.40;99.90;;;;;;486526;244;28432;-73
2023/11/10 08:32:46;;;;;;;6.13;1.73;;;7.50;99.90;;;;;;484883;245;28455;-74
2023/11/10 08:34:47;;;;;;;3.73;1.60;;;7.60;99.90;;;;;;485163;245;28727;-73
2023/11/10 08:36:48;;;;;;;4.13;1.40;;;7.70;99.90;;;;;;484950;245;28034;-74
2023/11/10 08:38:50;;;;;;;3.80;1.93;;;7.80;99.90;;;;;;485146;245;27974;-73
2023/11/10 08:40:51;;;;;;;4.97;1.63;;;7.80;99.90;;;;;;485094;245;28044;-72
2023/11/10 08:42:52;;;;;;;4.63;1.50;;;7.70;99.90;;;;;;479753;245;28035;-73
2023/11/10 08:44:54;;;;;;;2.97;1.77;;;7.60;99.90;;;;;;478097;245;28046;-74
2023/11/10 08:46:55;;;;;;;5.57;1.67;;;7.60;99.90;;;;;;478325;248;27955;-74
2023/11/10 08:48:56;;;;;;;2.93;1.47;;;7.60;99.90;;;;;;478382;248;28544;-73
2023/11/10 08:50:57;;;;;;;6.40;1.50;;;7.60;99.90;;;;;;478458;248;28481;-74
2023/11/10 08:52:58;;;;;;;1.47;1.37;;;7.60;99.90;;;;;;478331;245;27861;-74
2023/11/10 08:55:00;;;;;;;6.37;2.50;;;7.60;99.90;;;;;;478238;248;27975;-73
2023/11/10 08:57:02;;;;;;;2.13;1.40;;;7.50;99.90;;;;;;480188;245;27887;-73
2023/11/10 08:59:03;;;;;;;2.80;1.30;;;7.40;99.90;;;;;;485104;245;28001;-73
2023/11/10 09:01:06;;;;;;;1.23;1.17;;;7.30;99.90;;;;;;486464;244;27992;-74
2023/11/10 09:03:05;;;;;;;1.87;1.70;;;7.30;99.90;;;;;;484779;245;27881;-73
2023/11/10 09:05:06;;;;;;;2.40;1.23;;;7.40;99.90;;;;;;484994;245;28503;-74
2023/11/10 09:07:07;;;;;;;10.33;1.70;;;7.30;99.90;;;;;;485026;245;29106;-73
2023/11/10 09:09:09;;;;;;;1.30;1.20;;;7.20;99.90;;;;;;485101;245;28179;-73
2023/11/10 09:11:10;;;;;;;2.10;1.40;;;7.20;99.90;;;;;;485146;245;28486;-74
2023/11/10 09:13:11;;;;;;;3.53;1.67;;;7.30;99.90;;;;;;486744;244;28281;-73
2023/11/10 09:15:13;;;;;;;4.73;1.50;;;7.30;99.90;;;;;;476408;249;28022;-73
2023/11/10 09:17:13;;;;;;;4.47;1.20;;;7.20;99.90;;;;;;486633;244;28072;-73
2023/11/10 09:19:15;;;;;;;2.33;1.87;;;7.30;99.90;;;;;;485153;244;27971;-73
2023/11/10 09:21:16;;;;;;;3.07;1.20;;;7.40;99.90;;;;;;486457;244;27629;-74
2023/11/10 09:23:17;;;;;;;1.33;1.10;;;7.40;99.90;;;;;;485080;245;27883;-72
2023/11/10 09:25:20;;;;;;;1.37;1.27;;;7.50;99.90;;;;;;486494;244;28003;-74
2023/11/10 09:27:21;;;;;;;2.87;1.20;;;7.50;99.90;;;;;;484735;245;28371;-74
2023/11/10 09:29:21;;;;;;;4.80;1.60;;;7.60;99.90;;;;;;486472;244;27970;-72
2023/11/10 09:31:22;;;;;;;3.83;1.40;;;7.70;99.90;;;;;;478275;248;28061;-73
2023/11/10 09:33:24;;;;;;;5.03;1.27;;;7.80;99.90;;;;;;478301;248;28432;-75
2023/11/10 09:35:26;;;;;;;4.90;1.20;;;7.70;99.90;;;;;;478347;248;28265;-73
2023/11/10 09:37:27;;;;;;;1.20;1.10;;;7.80;99.90;;;;;;478269;248;27835;-74
2023/11/10 09:39:28;;;;;;;2.60;1.20;;;7.90;99.90;;;;;;478249;248;27914;-73
2023/11/10 09:41:29;;;;;;;6.57;2.20;;;7.90;99.90;;;;;;478242;248;27798;-74
2023/11/10 09:43:30;;;;;;;3.00;1.30;;;7.80;99.90;;;;;;478250;248;27786;-74
2023/11/10 09:45:31;;;;;;;2.50;1.40;;;7.70;99.90;;;;;;478262;248;27762;-74
2023/11/10 09:47:33;;;;;;;4.83;1.60;;;7.60;99.90;;;;;;478244;248;27817;-73
2023/11/10 09:49:34;;;;;;;3.20;1.47;;;7.60;99.90;;;;;;478241;248;28050;-73
2023/11/10 09:51:35;;;;;;;2.60;1.70;;;7.50;99.90;;;;;;478343;248;27865;-73
2023/11/10 09:53:36;;;;;;;2.60;1.20;;;7.50;99.90;;;;;;478339;248;27952;-74
2023/11/10 09:55:38;;;;;;;6.30;1.40;;;7.50;99.90;;;;;;478318;248;28303;-73
2023/11/10 09:57:39;;;;;;;1.73;1.23;;;7.50;99.90;;;;;;478288;248;27922;-73
2023/11/10 09:59:41;;;;;;;4.30;1.40;;;7.60;99.90;;;;;;478244;248;27931;-74
2023/11/10 10:01:41;;;;;;;2.80;2.03;;;7.70;99.90;;;;;;478242;248;27932;-73
2023/11/10 10:03:43;;;;;;;3.50;1.60;;;7.70;99.90;;;;;;478226;248;28052;-74
2023/11/10 10:05:44;;;;;;;3.10;1.60;;;7.70;99.90;;;;;;478224;248;28152;-73
2023/11/10 10:07:45;;;;;;;1.80;1.37;;;7.70;99.90;;;;;;478242;248;28421;-74
2023/11/10 10:09:47;;;;;;;3.90;1.57;;;7.70;99.90;;;;;;478264;248;28394;-75
2023/11/10 10:11:48;;;;;;;1.63;1.27;;;7.70;99.90;;;;;;478263;248;28342;-73
2023/11/10 10:13:49;;;;;;;4.23;1.40;;;7.80;99.90;;;;;;478241;248;28458;-74
2023/11/10 10:15:50;;;;;;;2.83;1.50;;;7.80;99.90;;;;;;478241;248;28422;-73
2023/11/10 10:17:53;;;;;;;3.67;1.60;;;7.90;99.90;;;;;;478240;248;27855;-73
2023/11/10 10:19:53;;;;;;;2.60;1.60;;;7.90;99.90;;;;;;478100;248;28066;-74
2023/11/10 10:21:54;;;;;;;3.37;1.60;;;7.90;99.90;;;;;;478236;248;27898;-73
2023/11/10 10:23:55;;;;;;;2.73;1.70;;;7.90;99.90;;;;;;478224;248;28045;-73
2023/11/10 10:25:56;;;;;;;1.60;1.50;;;7.90;99.90;;;;;;478306;248;27796;-73
2023/11/10 10:27:58;;;;;;;2.73;1.20;;;7.90;99.90;;;;;;478321;248;28022;-73
2023/11/10 10:30:00;;;;;;;5.70;1.67;;;7.80;99.90;;;;;;478290;248;28007;-74
2023/11/10 10:32:00;;;;;;;3.20;1.20;;;7.80;99.90;;;;;;478229;248;28012;-73
2023/11/10 10:34:04;;;;;;;6.27;1.87;;;7.80;99.90;;;;;;478305;248;27914;-74
2023/11/10 10:36:03;;;;;;;3.57;1.50;;;7.80;99.90;;;;;;478202;248;28023;-75
2023/11/10 10:38:07;;;;;;;4.30;1.30;;;7.70;99.90;;;;;;478255;248;28009;-73
2023/11/10 10:40:13;;;;;;;3.90;1.57;;;7.80;99.90;;;;;;478304;248;28131;-74